createdAt,value
2017-11-24T00:00:27.024Z,90.30
2017-11-24T00:02:54.637Z,90.44
2017-11-24T00:05:22.306Z,90.59
2017-11-24T00:07:50.022Z,90.64
2017-11-24T00:10:17.686Z,90.65
2017-11-24T00:12:45.318Z,90.88
2017-11-24T00:15:13.047Z,91.04
2017-11-24T00:17:40.728Z,91.25
2017-11-24T00:20:08.436Z,91.36
2017-11-24T00:22:36.093Z,91.31
2017-11-24T00:25:03.712Z,91.45
2017-11-24T00:27:31.373Z,91.35
2017-11-24T00:29:59.980Z,91.36
2017-11-24T00:32:27.605Z,91.41
2017-11-24T00:34:55.277Z,91.30
2017-11-24T00:37:22.996Z,91.29
2017-11-24T00:39:50.677Z,91.23
2017-11-24T00:42:18.292Z,91.23
2017-11-24T00:44:45.949Z,90.96
2017-11-24T00:47:13.712Z,90.68
2017-11-24T00:49:41.376Z,90.64
2017-11-24T00:52:09.097Z,90.56
2017-11-24T00:54:36.713Z,90.82
2017-11-24T00:57:04.388Z,90.83
2017-11-24T00:59:32.120Z,90.75
2017-11-24T01:01:59.723Z,90.44
2017-11-24T01:04:27.478Z,90.20
2017-11-24T01:06:55.229Z,90.24
2017-11-24T01:09:22.839Z,90.04
2017-11-24T01:11:50.450Z,89.92
2017-11-24T01:14:18.176Z,90.17
2017-11-24T01:16:45.785Z,90.56
2017-11-24T01:19:13.388Z,90.90
2017-11-24T01:21:41.076Z,90.87
2017-11-24T01:24:08.685Z,90.85
2017-11-24T01:26:36.300Z,90.90
2017-11-24T01:29:04.076Z,90.65
2017-11-24T01:31:31.777Z,90.66
2017-11-24T01:33:59.380Z,90.87
2017-11-24T01:36:27.049Z,90.69
2017-11-24T01:38:54.660Z,90.70
2017-11-24T01:41:22.281Z,90.66
2017-11-24T01:43:49.993Z,90.61
2017-11-24T01:46:17.613Z,90.71
2017-11-24T01:48:45.232Z,90.86
2017-11-24T01:51:12.916Z,91.30
2017-11-24T01:53:40.524Z,91.52
2017-11-24T01:56:08.230Z,91.57
2017-11-24T01:58:35.917Z,91.64
2017-11-24T02:01:03.573Z,91.66
2017-11-24T02:03:31.208Z,91.58
2017-11-24T02:05:58.871Z,91.49
2017-11-24T02:08:26.600Z,91.45
2017-11-24T02:10:54.220Z,91.46
2017-11-24T02:13:21.939Z,91.61
2017-11-24T02:15:49.609Z,91.67
2017-11-24T02:18:17.216Z,91.69
2017-11-24T02:20:44.895Z,91.63
2017-11-24T02:23:12.608Z,91.76
2017-11-24T02:25:40.313Z,91.68
2017-11-24T02:28:08.192Z,91.74
2017-11-24T02:30:35.849Z,91.81
2017-11-24T02:33:03.540Z,91.63
2017-11-24T02:35:31.197Z,91.49
2017-11-24T02:37:58.817Z,91.32
2017-11-24T02:40:26.494Z,90.99
2017-11-24T02:42:54.156Z,90.70
2017-11-24T02:45:21.844Z,90.05
2017-11-24T02:47:49.459Z,89.79
2017-11-24T02:50:17.176Z,90.07
2017-11-24T02:52:44.833Z,90.17
2017-11-24T02:55:12.501Z,89.98
2017-11-24T02:57:40.200Z,89.84
2017-11-24T03:00:07.872Z,89.46
2017-11-24T03:02:35.540Z,89.36
2017-11-24T03:05:03.257Z,89.67
2017-11-24T03:07:30.920Z,89.63
2017-11-24T03:09:58.636Z,89.62
2017-11-24T03:12:26.356Z,89.70
2017-11-24T03:14:54.020Z,89.36
2017-11-24T03:17:21.635Z,89.68
2017-11-24T03:19:49.296Z,89.62
2017-11-24T03:22:16.968Z,89.54
2017-11-24T03:24:44.572Z,89.42
2017-11-24T03:27:12.264Z,89.56
2017-11-24T03:29:39.872Z,89.75
2017-11-24T03:32:07.544Z,89.75
2017-11-24T03:34:35.257Z,89.71
2017-11-24T03:37:02.871Z,89.35
2017-11-24T03:39:30.476Z,89.77
2017-11-24T03:41:58.147Z,89.65
2017-11-24T03:44:25.814Z,89.91
2017-11-24T03:46:53.494Z,89.96
2017-11-24T03:49:21.172Z,90.31
2017-11-24T03:51:48.781Z,90.36
2017-11-24T03:54:16.452Z,90.50
2017-11-24T03:56:44.110Z,90.76
2017-11-24T03:59:11.776Z,90.69
2017-11-24T04:01:39.496Z,90.96
2017-11-24T04:04:07.246Z,90.84
2017-11-24T04:06:34.865Z,90.82
2017-11-24T04:09:02.540Z,90.87
2017-11-24T04:11:30.272Z,90.91
2017-11-24T04:13:57.996Z,90.68
2017-11-24T04:16:25.676Z,90.84
2017-11-24T04:18:53.457Z,90.95
2017-11-24T04:21:21.112Z,90.80
2017-11-24T04:23:48.800Z,90.98
2017-11-24T04:26:16.549Z,90.98
2017-11-24T04:28:44.217Z,90.77
2017-11-24T04:31:11.829Z,90.66
2017-11-24T04:33:39.544Z,90.76
2017-11-24T04:36:07.164Z,90.88
2017-11-24T04:38:34.773Z,90.90
2017-11-24T04:41:02.468Z,90.75
2017-11-24T04:43:30.204Z,90.86
2017-11-24T04:45:57.819Z,91.04
2017-11-24T04:48:25.475Z,90.88
2017-11-24T04:50:53.080Z,90.66
2017-11-24T04:53:20.764Z,90.61
2017-11-24T04:55:48.420Z,90.58
2017-11-24T04:58:16.084Z,90.61
2017-11-24T05:00:43.761Z,90.50
2017-11-24T05:03:11.476Z,90.82
2017-11-24T05:05:39.088Z,91.12
2017-11-24T05:08:06.763Z,91.27
2017-11-24T05:10:34.490Z,91.24
2017-11-24T05:13:02.105Z,91.03
2017-11-24T05:15:29.715Z,91.05
2017-11-24T05:17:57.444Z,91.13
2017-11-24T05:20:25.136Z,90.86
2017-11-24T05:22:52.831Z,90.75
2017-11-24T05:25:20.590Z,90.67
2017-11-24T05:27:48.224Z,90.76
2017-11-24T05:30:15.890Z,90.60
2017-11-24T05:32:43.553Z,90.52
2017-11-24T05:35:11.160Z,90.44
2017-11-24T05:37:38.772Z,90.52
2017-11-24T05:40:06.483Z,90.62
2017-11-24T05:42:34.157Z,90.70
2017-11-24T05:45:01.820Z,90.33
2017-11-24T05:47:29.480Z,90.18
2017-11-24T05:49:57.080Z,90.19
2017-11-24T05:52:24.741Z,89.35
2017-11-24T05:54:52.457Z,89.75
2017-11-24T05:57:20.125Z,89.84
2017-11-24T05:59:47.784Z,89.47
2017-11-24T06:02:15.533Z,89.50
2017-11-24T06:04:43.132Z,89.09
2017-11-24T06:07:10.831Z,88.82
2017-11-24T06:09:38.504Z,88.95
2017-11-24T06:12:06.115Z,88.55
2017-11-24T06:14:33.740Z,88.63
2017-11-24T06:17:01.405Z,88.52
2017-11-24T06:19:29.032Z,88.17
2017-11-24T06:21:56.636Z,88.01
2017-11-24T06:24:24.300Z,87.82
2017-11-24T06:26:51.908Z,87.82
2017-11-24T06:29:19.512Z,88.19
2017-11-24T06:31:47.184Z,87.85
2017-11-24T06:34:14.792Z,87.85
2017-11-24T06:36:42.454Z,87.39
2017-11-24T06:39:10.223Z,87.25
2017-11-24T06:41:37.832Z,86.62
2017-11-24T06:44:05.437Z,86.50
2017-11-24T06:46:33.083Z,86.83
2017-11-24T06:49:00.691Z,86.64
2017-11-24T06:51:28.299Z,86.57
2017-11-24T06:53:56.032Z,86.03
2017-11-24T06:56:23.632Z,86.25
2017-11-24T06:58:51.236Z,86.62
2017-11-24T07:01:18.903Z,86.49
2017-11-24T07:03:46.564Z,86.75
2017-11-24T07:06:14.167Z,86.37
2017-11-24T07:08:41.832Z,85.33
2017-11-24T07:11:09.468Z,84.34
2017-11-24T07:13:37.074Z,84.83
2017-11-24T07:16:04.846Z,84.97
2017-11-24T07:18:32.528Z,84.56
2017-11-24T07:21:00.149Z,84.21
2017-11-24T07:23:27.808Z,83.53
2017-11-24T07:25:55.420Z,83.49
2017-11-24T07:28:23.028Z,83.35
2017-11-24T07:30:50.760Z,83.06
2017-11-24T07:33:18.499Z,83.05
2017-11-24T07:35:46.104Z,82.95
2017-11-24T07:38:14.143Z,83.02
2017-11-24T07:40:41.765Z,83.29
2017-11-24T07:43:09.424Z,82.86
2017-11-24T07:45:37.154Z,82.93
2017-11-24T07:48:04.764Z,82.86
2017-11-24T07:50:32.376Z,82.52
2017-11-24T07:53:00.093Z,81.92
2017-11-24T07:55:27.765Z,80.91
2017-11-24T07:57:55.372Z,80.51
2017-11-24T08:00:23.036Z,80.26
2017-11-24T08:02:50.702Z,80.60
2017-11-24T08:05:18.311Z,79.72
2017-11-24T08:07:45.977Z,79.62
2017-11-24T08:10:13.588Z,79.54
2017-11-24T08:12:41.192Z,79.01
2017-11-24T08:15:08.852Z,79.57
2017-11-24T08:17:36.452Z,79.43
2017-11-24T08:20:04.116Z,79.46
2017-11-24T08:22:31.782Z,79.02
2017-11-24T08:24:59.399Z,77.84
2017-11-24T08:27:27.076Z,78.36
2017-11-24T08:29:54.797Z,77.43
2017-11-24T08:32:22.407Z,77.30
2017-11-24T08:34:50.017Z,77.17
2017-11-24T08:37:17.732Z,77.41
2017-11-24T08:39:45.418Z,76.77
2017-11-24T08:42:13.027Z,77.31
2017-11-24T08:44:40.756Z,76.80
2017-11-24T08:47:13.968Z,76.80
2017-11-24T08:49:47.603Z,77.48
2017-11-24T08:52:15.208Z,77.94
2017-11-24T08:54:42.882Z,77.19
2017-11-24T08:57:10.550Z,77.21
2017-11-24T08:59:38.176Z,77.87
2017-11-24T09:02:05.805Z,77.22
2017-11-24T09:04:33.464Z,76.59
2017-11-24T09:07:01.079Z,75.59
2017-11-24T09:09:28.686Z,75.90
2017-11-24T09:11:56.395Z,76.45
2017-11-24T09:14:24.057Z,75.23
2017-11-24T09:16:51.663Z,75.85
2017-11-24T09:19:19.389Z,75.84
2017-11-24T09:21:47.064Z,77.21
2017-11-24T09:24:14.676Z,75.05
2017-11-24T09:26:42.390Z,74.94
2017-11-24T09:29:10.006Z,74.66
2017-11-24T09:31:37.656Z,73.63
2017-11-24T09:34:05.365Z,74.52
2017-11-24T09:36:32.984Z,74.32
2017-11-24T09:39:00.604Z,74.68
2017-11-24T09:41:28.361Z,74.08
2017-11-24T09:43:56.000Z,75.15
2017-11-24T09:46:23.687Z,75.33
2017-11-24T09:48:51.362Z,76.40
2017-11-24T09:51:18.972Z,76.67
2017-11-24T09:53:46.640Z,76.33
2017-11-24T09:56:14.412Z,76.01
2017-11-24T09:58:42.077Z,75.49
2017-11-24T10:01:09.745Z,76.00
2017-11-24T10:03:37.412Z,75.19
2017-11-24T10:06:05.072Z,74.62
2017-11-24T10:08:32.753Z,74.44
2017-11-24T10:11:00.488Z,74.31
2017-11-24T10:13:28.153Z,73.41
2017-11-24T10:15:55.809Z,73.08
2017-11-24T10:18:23.499Z,73.01
2017-11-24T10:20:56.708Z,72.50
2017-11-24T10:23:24.403Z,71.94
2017-11-24T10:25:52.077Z,71.11
2017-11-24T10:28:19.684Z,70.62
2017-11-24T10:30:47.338Z,70.53
2017-11-24T10:33:14.948Z,71.26
2017-11-24T10:35:42.559Z,71.54
2017-11-24T10:38:10.268Z,73.04
2017-11-24T10:40:37.932Z,72.80
2017-11-24T10:43:05.627Z,73.05
2017-11-24T10:45:33.331Z,73.61
2017-11-24T10:48:00.936Z,73.48
2017-11-24T10:50:28.595Z,74.17
2017-11-24T10:52:56.320Z,74.66
2017-11-24T10:55:23.920Z,75.73
2017-11-24T10:57:51.575Z,75.85
2017-11-24T11:00:19.285Z,74.73
2017-11-24T11:02:46.948Z,75.69
2017-11-24T11:05:14.548Z,77.24
2017-11-24T11:07:42.302Z,77.59
2017-11-24T11:10:09.961Z,77.71
2017-11-24T11:12:37.627Z,78.43
2017-11-24T11:15:05.333Z,77.96
2017-11-24T11:17:32.991Z,76.23
2017-11-24T11:20:00.653Z,75.90
2017-11-24T11:22:28.308Z,74.91
2017-11-24T11:24:55.969Z,75.36
2017-11-24T11:27:23.635Z,74.19
2017-11-24T11:29:51.311Z,74.09
2017-11-24T11:32:18.932Z,74.39
2017-11-24T11:34:46.651Z,75.19
2017-11-24T11:37:14.349Z,74.90
2017-11-24T11:39:42.008Z,75.28
2017-11-24T11:42:09.616Z,75.51
2017-11-24T11:44:37.272Z,75.71
2017-11-24T11:47:04.937Z,75.52
2017-11-24T11:49:32.581Z,74.01
2017-11-24T11:52:00.252Z,75.34
2017-11-24T11:54:27.936Z,75.83
2017-11-24T11:56:55.548Z,76.11
2017-11-24T11:59:23.214Z,75.92
2017-11-24T12:01:50.892Z,76.24
2017-11-24T12:04:18.495Z,75.48
2017-11-24T12:06:46.165Z,75.09
2017-11-24T12:09:13.772Z,75.48
2017-11-24T12:11:41.443Z,76.45
2017-11-24T12:14:09.152Z,76.08
2017-11-24T12:16:36.760Z,75.40
2017-11-24T12:19:04.421Z,76.74
2017-11-24T12:21:32.080Z,77.94
2017-11-24T12:23:59.743Z,78.19
2017-11-24T12:26:27.409Z,79.55
2017-11-24T12:28:55.059Z,79.65
2017-11-24T12:31:22.724Z,78.84
2017-11-24T12:33:50.344Z,79.59
2017-11-24T12:36:18.087Z,79.42
2017-11-24T12:38:45.744Z,79.49
2017-11-24T12:41:13.348Z,78.64
2017-11-24T12:43:41.012Z,77.98
2017-11-24T12:46:08.612Z,77.69
2017-11-24T12:48:36.216Z,77.74
2017-11-24T12:51:03.868Z,78.08
2017-11-24T12:53:31.577Z,78.79
2017-11-24T12:55:59.200Z,79.89
2017-11-24T12:58:26.866Z,79.79
2017-11-24T13:00:54.469Z,80.02
2017-11-24T13:03:22.076Z,79.81
2017-11-24T13:05:49.740Z,79.82
2017-11-24T13:08:17.336Z,80.13
2017-11-24T13:10:44.945Z,81.37
2017-11-24T13:13:12.592Z,83.25
2017-11-24T13:15:40.212Z,83.71
2017-11-24T13:18:07.872Z,83.42
2017-11-24T13:20:35.525Z,82.90
2017-11-24T13:23:03.124Z,82.92
2017-11-24T13:25:30.788Z,82.88
2017-11-24T13:27:58.524Z,83.08
2017-11-24T13:30:26.139Z,82.97
2017-11-24T13:32:53.744Z,82.98
2017-11-24T13:35:21.468Z,82.82
2017-11-24T13:37:49.072Z,83.13
2017-11-24T13:40:16.680Z,83.61
2017-11-24T13:42:44.372Z,83.90
2017-11-24T13:45:12.048Z,84.29
2017-11-24T13:47:39.656Z,84.30
2017-11-24T13:50:07.379Z,84.31
2017-11-24T13:52:35.092Z,83.86
2017-11-24T13:55:02.693Z,83.90
2017-11-24T13:57:30.347Z,83.68
2017-11-24T13:59:58.012Z,83.47
2017-11-24T14:02:25.680Z,83.16
2017-11-24T14:04:53.460Z,83.11
2017-11-24T14:07:21.127Z,83.11
2017-11-24T14:09:48.732Z,83.62
2017-11-24T14:12:16.503Z,83.71
2017-11-24T14:14:44.173Z,83.75
2017-11-24T14:17:11.779Z,84.88
2017-11-24T14:19:39.508Z,84.79
2017-11-24T14:22:07.113Z,85.21
2017-11-24T14:24:34.776Z,85.66
2017-11-24T14:27:02.461Z,85.97
2017-11-24T14:29:30.068Z,85.77
2017-11-24T14:31:57.680Z,85.64
2017-11-24T14:34:25.344Z,85.84
2017-11-24T14:36:52.949Z,85.77
2017-11-24T14:39:20.617Z,86.54
2017-11-24T14:41:48.276Z,87.07
2017-11-24T14:44:15.891Z,87.24
2017-11-24T14:46:43.573Z,87.04
2017-11-24T14:49:11.296Z,87.32
2017-11-24T14:51:39.420Z,87.13
2017-11-24T14:54:07.110Z,86.97
2017-11-24T14:56:34.768Z,86.99
2017-11-24T14:59:02.441Z,87.85
2017-11-24T15:01:30.116Z,87.78
2017-11-24T15:03:57.787Z,87.84
2017-11-24T15:06:25.395Z,87.69
2017-11-24T15:08:53.009Z,87.61
2017-11-24T15:11:20.679Z,88.15
2017-11-24T15:13:48.285Z,88.49
2017-11-24T15:16:15.905Z,88.22
2017-11-24T15:18:43.563Z,87.99
2017-11-24T15:21:11.190Z,88.06
2017-11-24T15:23:38.928Z,88.17
2017-11-24T15:26:06.644Z,88.33
2017-11-24T15:28:34.252Z,88.22
2017-11-24T15:31:01.880Z,88.32
2017-11-24T15:33:29.543Z,88.18
2017-11-24T15:35:57.214Z,87.86
2017-11-24T15:38:24.820Z,88.18
2017-11-24T15:40:52.549Z,88.21
2017-11-24T15:43:20.276Z,88.14
2017-11-24T15:45:47.905Z,88.11
2017-11-24T15:48:15.640Z,88.08
2017-11-24T15:50:43.313Z,88.05
2017-11-24T15:53:10.921Z,88.22
2017-11-24T15:55:38.577Z,88.03
2017-11-24T15:58:06.180Z,87.97
2017-11-24T16:00:33.782Z,87.75
2017-11-24T16:03:01.505Z,87.82
2017-11-24T16:05:29.115Z,88.07
2017-11-24T16:07:56.724Z,87.75
2017-11-24T16:10:24.455Z,88.10
2017-11-24T16:12:52.122Z,88.30
2017-11-24T16:15:19.788Z,88.51
2017-11-24T16:17:47.541Z,88.42
2017-11-24T16:20:15.158Z,88.49
2017-11-24T16:22:42.771Z,88.89
2017-11-24T16:25:10.428Z,88.78
2017-11-24T16:27:38.037Z,88.33
2017-11-24T16:30:05.650Z,88.32
2017-11-24T16:32:33.369Z,88.71
2017-11-24T16:35:01.005Z,88.72
2017-11-24T16:37:28.615Z,88.60
2017-11-24T16:39:56.308Z,88.95
2017-11-24T16:42:23.920Z,89.04
2017-11-24T16:44:51.589Z,89.10
2017-11-24T16:47:19.276Z,89.07
2017-11-24T16:49:46.884Z,88.71
2017-11-24T16:52:14.573Z,89.04
2017-11-24T16:54:42.354Z,89.15
2017-11-24T16:57:10.900Z,89.41
2017-11-24T16:59:38.517Z,89.55
2017-11-24T17:02:06.240Z,89.62
2017-11-24T17:04:33.859Z,89.71
2017-11-24T17:07:01.530Z,89.61
2017-11-24T17:09:29.203Z,89.09
2017-11-24T17:11:56.820Z,88.97
2017-11-24T17:14:24.444Z,88.94
2017-11-24T17:16:52.160Z,88.99
2017-11-24T17:19:19.764Z,88.91
2017-11-24T17:21:47.452Z,89.39
2017-11-24T17:24:15.148Z,89.48
2017-11-24T17:26:42.777Z,89.44
2017-11-24T17:29:10.400Z,89.40
2017-11-24T17:31:38.077Z,89.46
2017-11-24T17:34:05.700Z,89.58
2017-11-24T17:36:33.316Z,89.69
2017-11-24T17:39:01.035Z,89.68
2017-11-24T17:41:28.699Z,89.56
2017-11-24T17:43:56.393Z,89.73
2017-11-24T17:46:24.153Z,89.57
2017-11-24T17:48:51.775Z,89.73
2017-11-24T17:51:19.399Z,89.68
2017-11-24T17:53:47.119Z,89.42
2017-11-24T17:56:14.732Z,89.34
2017-11-24T17:58:42.348Z,89.45
2017-11-24T18:01:10.012Z,89.48
2017-11-24T18:03:37.640Z,89.41
2017-11-24T18:06:05.253Z,89.31
2017-11-24T18:08:32.940Z,89.26
2017-11-24T18:11:00.548Z,89.17
2017-11-24T18:13:28.156Z,88.91
2017-11-24T18:15:55.871Z,88.81
2017-11-24T18:18:23.552Z,89.11
2017-11-24T18:20:51.216Z,89.21
2017-11-24T18:23:18.993Z,89.24
2017-11-24T18:25:46.718Z,89.24
2017-11-24T18:28:14.467Z,89.22
2017-11-24T18:30:42.202Z,89.37
2017-11-24T18:33:09.868Z,89.34
2017-11-24T18:35:37.516Z,89.32
2017-11-24T18:38:05.270Z,89.26
2017-11-24T18:40:32.948Z,89.33
2017-11-24T18:43:00.626Z,89.39
2017-11-24T18:45:28.361Z,89.52
2017-11-24T18:47:56.081Z,89.57
2017-11-24T18:50:23.755Z,89.71
2017-11-24T18:52:51.525Z,89.67
2017-11-24T18:55:19.193Z,89.59
2017-11-24T18:57:46.816Z,89.59
2017-11-24T19:00:14.536Z,89.75
2017-11-24T19:02:42.201Z,89.66
2017-11-24T19:05:09.808Z,89.59
2017-11-24T19:07:37.535Z,89.77
2017-11-24T19:10:05.148Z,89.67
2017-11-24T19:12:32.808Z,89.92
2017-11-24T19:15:00.532Z,89.87
2017-11-24T19:17:28.136Z,90.03
2017-11-24T19:19:55.768Z,89.86
2017-11-24T19:22:23.491Z,89.67
2017-11-24T19:24:51.100Z,89.52
2017-11-24T19:27:18.829Z,89.39
2017-11-24T19:29:46.500Z,89.45
2017-11-24T19:32:14.211Z,89.65
2017-11-24T19:34:41.905Z,89.71
2017-11-24T19:37:09.582Z,89.76
2017-11-24T19:39:37.192Z,89.84
2017-11-24T19:42:04.904Z,89.77
2017-11-24T19:44:32.591Z,89.76
2017-11-24T19:47:00.259Z,89.50
2017-11-24T19:49:27.868Z,89.68
2017-11-24T19:51:55.592Z,89.55
2017-11-24T19:54:23.311Z,89.59
2017-11-24T19:56:50.938Z,89.63
2017-11-24T19:59:18.604Z,89.55
2017-11-24T20:01:46.335Z,89.66
2017-11-24T20:04:13.948Z,89.48
2017-11-24T20:06:41.603Z,89.45
2017-11-24T20:09:09.216Z,89.43
2017-11-24T20:11:36.924Z,89.38
2017-11-24T20:14:04.667Z,89.55
2017-11-24T20:16:32.273Z,89.63
2017-11-24T20:18:59.891Z,89.42
2017-11-24T20:21:27.612Z,89.53
2017-11-24T20:23:55.225Z,89.47
2017-11-24T20:26:22.850Z,89.61
2017-11-24T20:28:50.504Z,89.36
2017-11-24T20:31:18.108Z,89.21
2017-11-24T20:33:45.710Z,89.01
2017-11-24T20:36:13.388Z,89.07
2017-11-24T20:38:41.003Z,89.39
2017-11-24T20:41:08.609Z,89.54
2017-11-24T20:43:36.355Z,89.46
2017-11-24T20:46:04.020Z,89.39
2017-11-24T20:48:31.648Z,89.31
2017-11-24T20:50:59.303Z,89.34
2017-11-24T20:53:26.972Z,89.32
2017-11-24T20:55:54.636Z,89.48
2017-11-24T20:58:22.356Z,89.85
2017-11-24T21:00:49.973Z,89.86
2017-11-24T21:03:17.580Z,89.57
2017-11-24T21:05:45.300Z,89.64
2017-11-24T21:08:12.980Z,89.56
2017-11-24T21:10:40.640Z,89.83
2017-11-24T21:13:08.387Z,90.09
2017-11-24T21:15:36.062Z,90.36
2017-11-24T21:18:03.723Z,90.53
2017-11-24T21:20:31.484Z,90.57
2017-11-24T21:22:59.124Z,90.56
2017-11-24T21:25:26.747Z,90.34
2017-11-24T21:27:54.505Z,90.32
2017-11-24T21:30:22.108Z,90.26
2017-11-24T21:32:49.781Z,90.05
2017-11-24T21:35:17.440Z,89.91
2017-11-24T21:37:45.043Z,89.79
2017-11-24T21:40:12.644Z,89.78
2017-11-24T21:42:40.301Z,90.01
2017-11-24T21:45:07.912Z,90.02
2017-11-24T21:47:35.526Z,90.22
2017-11-24T21:50:03.183Z,90.01
2017-11-24T21:52:30.852Z,90.22
2017-11-24T21:54:58.558Z,90.22
2017-11-24T21:57:26.208Z,90.12
2017-11-24T21:59:53.872Z,90.17
2017-11-24T22:02:21.545Z,90.28
2017-11-24T22:04:49.200Z,90.37
2017-11-24T22:07:16.874Z,90.24
2017-11-24T22:09:44.480Z,89.86
2017-11-24T22:12:12.129Z,89.75
2017-11-24T22:14:39.796Z,89.46
2017-11-24T22:17:07.409Z,89.46
2017-11-24T22:19:35.072Z,89.53
2017-11-24T22:22:02.739Z,89.43
2017-11-24T22:24:30.350Z,89.40
2017-11-24T22:26:58.047Z,89.44
2017-11-24T22:29:25.711Z,89.48
2017-11-24T22:31:53.376Z,89.78
2017-11-24T22:34:21.096Z,90.11
2017-11-24T22:36:48.754Z,90.14
2017-11-24T22:39:16.420Z,90.17
2017-11-24T22:41:44.087Z,90.27
2017-11-24T22:44:11.757Z,89.97
2017-11-24T22:46:39.424Z,90.17
2017-11-24T22:49:07.084Z,90.38
2017-11-24T22:51:34.689Z,90.29
2017-11-24T22:54:02.292Z,90.22
2017-11-24T22:56:29.944Z,90.21
2017-11-24T22:58:57.608Z,89.90
2017-11-24T23:01:25.302Z,90.04
2017-11-24T23:03:53.014Z,90.24
2017-11-24T23:06:20.620Z,90.23
2017-11-24T23:08:48.237Z,90.29
2017-11-24T23:11:15.979Z,90.28
2017-11-24T23:13:43.584Z,90.39
2017-11-24T23:16:11.244Z,90.42
2017-11-24T23:18:38.900Z,90.33
2017-11-24T23:21:06.508Z,89.88
2017-11-24T23:23:34.124Z,89.85
2017-11-24T23:26:01.804Z,89.76
2017-11-24T23:28:29.415Z,89.89
2017-11-24T23:30:57.081Z,89.72
2017-11-24T23:33:24.776Z,89.65
2017-11-24T23:35:52.440Z,89.83
2017-11-24T23:38:20.052Z,90.00
2017-11-24T23:40:47.720Z,90.05
2017-11-24T23:43:15.380Z,89.64
2017-11-24T23:45:42.979Z,89.86
2017-11-24T23:48:10.640Z,90.06
2017-11-24T23:50:38.239Z,89.74
2017-11-24T23:53:05.908Z,89.81
2017-11-24T23:55:33.614Z,90.00
2017-11-24T23:58:01.224Z,89.79
